Time;durP1;ratioP1;P1;durP2;ratioP2;P2;SDS_P1;SDS_P2;PMS_P1;PMS_P2;Temp;Humidity;BMP_temperature;BMP_pressure;BME280_temperature;BME280_humidity;BME280_pressure;Samples;Min_cycle;Max_cycle;Signal;HPM_P1;HPM_P2
2021/06/15 00:01:33;;;;;;;6.47;4.88;;;23.20;71.90;;;;;;4990084;28;20042;-77
2021/06/15 00:03:59;;;;;;;5.70;4.20;;;23.20;71.90;;;;;;5006970;28;20030;-77
2021/06/15 00:06:25;;;;;;;8.35;4.72;;;23.20;71.90;;;;;;4991203;28;20417;-78
2021/06/15 00:08:50;;;;;;;6.50;4.45;;;23.20;71.80;;;;;;4991404;28;20038;-77
2021/06/15 00:11:16;;;;;;;6.43;4.53;;;23.20;71.90;;;;;;4991510;28;20023;-78
2021/06/15 00:13:41;;;;;;;7.20;5.15;;;23.20;71.80;;;;;;4991280;28;20027;-79
2021/06/15 00:16:07;;;;;;;9.38;4.53;;;23.20;71.90;;;;;;4991656;28;20022;-80
2021/06/15 00:18:34;;;;;;;9.55;4.82;;;23.20;71.90;;;;;;4991334;28;20027;-77
2021/06/15 00:20:59;;;;;;;7.07;4.85;;;23.20;72.60;;;;;;4991731;28;20041;-77
2021/06/15 00:23:26;;;;;;;8.38;5.75;;;23.10;71.80;;;;;;4991370;28;20019;-81
2021/06/15 00:25:51;;;;;;;11.35;5.22;;;23.20;71.90;;;;;;4991286;28;20090;-81
2021/06/15 00:28:19;;;;;;;10.80;6.03;;;23.10;71.80;;;;;;4990499;28;20026;-77
2021/06/15 00:30:45;;;;;;;10.35;6.03;;;23.10;71.80;;;;;;4990991;28;20035;-78
2021/06/15 00:33:11;;;;;;;8.30;5.68;;;23.10;71.90;;;;;;4991135;28;20026;-76
2021/06/15 00:35:37;;;;;;;8.18;4.63;;;23.10;71.80;;;;;;4989939;28;20121;-77
2021/06/15 00:38:03;;;;;;;6.65;5.13;;;23.10;71.90;;;;;;4991451;28;20537;-79
2021/06/15 00:40:29;;;;;;;7.68;4.95;;;23.10;71.90;;;;;;4991545;28;20030;-78
2021/06/15 00:42:55;;;;;;;8.80;5.43;;;23.10;72.00;;;;;;4991147;28;20034;-77
2021/06/15 00:45:27;;;;;;;9.15;5.63;;;23.10;72.00;;;;;;4994421;28;20018;-77
2021/06/15 00:47:53;;;;;;;9.98;4.88;;;23.10;71.90;;;;;;4994289;28;20034;-78
2021/06/15 00:50:21;;;;;;;8.95;6.13;;;23.10;71.90;;;;;;4994770;28;20081;-77
2021/06/15 00:52:48;;;;;;;9.40;6.15;;;23.10;72.60;;;;;;4994589;28;20041;-76
2021/06/15 00:55:13;;;;;;;10.70;6.03;;;23.10;72.00;;;;;;4994522;28;20129;-76
2021/06/15 00:57:39;;;;;;;8.75;6.25;;;23.10;72.00;;;;;;4993932;28;20553;-75
2021/06/15 01:00:07;;;;;;;9.25;6.47;;;23.10;72.00;;;;;;4994055;28;20110;-79
2021/06/15 01:02:33;;;;;;;9.73;5.50;;;23.10;72.00;;;;;;4994282;28;20031;-77
2021/06/15 01:05:01;;;;;;;10.30;6.15;;;23.10;72.10;;;;;;4994896;28;20023;-79
2021/06/15 01:07:33;;;;;;;11.82;7.35;;;23.10;71.90;;;;;;4994682;28;20402;-77
2021/06/15 01:10:07;;;;;;;11.10;6.45;;;23.10;72.10;;;;;;4994808;28;20054;-75
2021/06/15 01:13:01;;;;;;;14.45;8.07;;;23.00;72.40;;;;;;4994267;28;20023;-77
2021/06/15 01:16:00;;;;;;;9.90;7.25;;;23.00;72.60;;;;;;4994330;28;20034;-77
2021/06/15 01:18:27;;;;;;;12.07;7.97;;;23.10;73.00;;;;;;4994280;28;20027;-76
2021/06/15 01:20:59;;;;;;;11.80;7.70;;;23.00;73.10;;;;;;4993866;28;20026;-76
2021/06/15 01:23:33;;;;;;;9.88;7.00;;;23.00;73.50;;;;;;4994139;28;20035;-77
2021/06/15 01:26:17;;;;;;;12.18;6.88;;;23.00;73.60;;;;;;4994040;28;20018;-77
2021/06/15 01:28:51;;;;;;;11.60;7.63;;;23.00;73.60;;;;;;4993847;28;20057;-79
2021/06/15 01:31:25;;;;;;;9.65;6.78;;;23.00;73.60;;;;;;4993877;28;20481;-76
2021/06/15 01:34:15;;;;;;;10.75;6.70;;;23.00;73.70;;;;;;4993168;28;20084;-76
2021/06/15 01:36:49;;;;;;;12.73;7.40;;;23.10;73.80;;;;;;4991493;28;20034;-77
2021/06/15 01:39:22;;;;;;;8.68;6.88;;;23.00;73.60;;;;;;4992396;28;20062;-78
2021/06/15 01:41:55;;;;;;;10.88;7.40;;;23.00;73.70;;;;;;5008437;28;20026;-80
2021/06/15 01:44:23;;;;;;;9.93;6.93;;;23.00;73.60;;;;;;4993514;28;20022;-77
2021/06/15 01:47:11;;;;;;;11.25;7.10;;;23.00;73.80;;;;;;4993638;28;20030;-78
2021/06/15 01:49:50;;;;;;;9.23;6.05;;;23.10;73.90;;;;;;4993373;28;20450;-78
2021/06/15 01:52:17;;;;;;;10.70;7.28;;;23.00;73.80;;;;;;4993556;28;20014;-77
2021/06/15 01:54:44;;;;;;;11.85;7.40;;;23.00;73.80;;;;;;4991804;28;20043;-77
2021/06/15 01:57:13;;;;;;;13.27;7.93;;;23.00;73.60;;;;;;4992624;28;20026;-81
2021/06/15 01:59:42;;;;;;;11.13;8.23;;;23.00;73.70;;;;;;4993225;28;20122;-78
2021/06/15 02:02:09;;;;;;;8.93;6.57;;;23.00;73.60;;;;;;4993562;28;20015;-80
2021/06/15 02:04:39;;;;;;;13.80;8.43;;;23.00;73.60;;;;;;4993039;28;20034;-79
2021/06/15 02:07:07;;;;;;;14.45;9.07;;;23.00;73.60;;;;;;4993147;28;20018;-77
2021/06/15 02:09:37;;;;;;;12.25;9.38;;;23.00;73.50;;;;;;4993096;28;20022;-78
2021/06/15 02:12:04;;;;;;;11.45;7.75;;;23.00;73.60;;;;;;4993210;28;20014;-80
2021/06/15 02:14:32;;;;;;;11.88;7.47;;;23.00;73.50;;;;;;5008591;28;20068;-81
2021/06/15 02:16:59;;;;;;;13.38;8.80;;;23.00;73.50;;;;;;5008286;28;20022;-81
2021/06/15 02:19:27;;;;;;;11.43;8.55;;;23.00;73.60;;;;;;4992896;28;20104;-82
2021/06/15 02:22:04;;;;;;;11.98;8.90;;;23.00;73.60;;;;;;4992851;28;20018;-81
2021/06/15 02:24:38;;;;;;;16.77;9.57;;;23.00;73.50;;;;;;4993212;28;20077;-81
2021/06/15 02:27:07;;;;;;;13.10;8.93;;;22.90;73.50;;;;;;4992433;28;20042;-81
2021/06/15 02:29:33;;;;;;;14.07;10.02;;;22.90;73.50;;;;;;4992637;28;20023;-81
2021/06/15 02:32:01;;;;;;;12.32;8.85;;;22.90;73.50;;;;;;4992888;28;20102;-79
2021/06/15 02:34:28;;;;;;;13.27;8.45;;;22.90;73.50;;;;;;4992648;28;20034;-76
2021/06/15 02:36:56;;;;;;;12.40;8.98;;;22.90;73.50;;;;;;4992178;28;20022;-77
2021/06/15 02:39:27;;;;;;;15.68;11.25;;;22.90;73.50;;;;;;4992716;28;20034;-77
2021/06/15 02:41:55;;;;;;;13.80;9.32;;;22.90;73.50;;;;;;4990943;28;20161;-78
2021/06/15 02:44:24;;;;;;;11.02;9.35;;;22.90;73.50;;;;;;4992758;28;20034;-77
2021/06/15 02:46:54;;;;;;;14.57;9.68;;;22.90;73.50;;;;;;4992263;28;20037;-78
2021/06/15 02:49:23;;;;;;;14.27;9.50;;;22.90;73.50;;;;;;4992573;28;20503;-77
2021/06/15 02:52:12;;;;;;;12.10;8.70;;;22.90;73.50;;;;;;4992437;28;20014;-75
2021/06/15 02:54:50;;;;;;;14.57;9.75;;;22.90;73.50;;;;;;4992045;28;20411;-78
2021/06/15 02:57:17;;;;;;;15.82;9.55;;;22.90;73.50;;;;;;4991860;28;20092;-79
2021/06/15 02:59:42;;;;;;;13.00;8.75;;;22.90;73.50;;;;;;4992168;28;20560;-76
2021/06/15 03:02:08;;;;;;;13.10;9.35;;;22.90;73.50;;;;;;4992386;28;20026;-77
2021/06/15 03:04:34;;;;;;;11.25;8.52;;;22.90;73.50;;;;;;4992062;28;20022;-77
2021/06/15 03:07:00;;;;;;;14.80;11.10;;;22.80;73.40;;;;;;4990820;28;20069;-77
2021/06/15 03:09:25;;;;;;;14.00;10.13;;;22.80;73.30;;;;;;4992147;28;20026;-77
2021/06/15 03:12:09;;;;;;;15.40;11.52;;;22.80;73.40;;;;;;4991764;28;20598;-78
2021/06/15 03:14:35;;;;;;;17.25;11.48;;;22.80;73.40;;;;;;4991793;28;20034;-77
2021/06/15 03:17:04;;;;;;;17.40;11.85;;;22.80;73.30;;;;;;4992550;28;20026;-77
2021/06/15 03:19:44;;;;;;;16.88;12.63;;;22.80;73.40;;;;;;4992051;28;20022;-78
2021/06/15 03:22:11;;;;;;;15.95;11.20;;;22.80;73.30;;;;;;4992120;28;20034;-76
2021/06/15 03:24:43;;;;;;;16.38;13.27;;;22.80;73.30;;;;;;4991649;28;20023;-79
2021/06/15 03:27:12;;;;;;;18.33;12.63;;;22.80;73.30;;;;;;5006562;28;20030;-77
2021/06/15 03:29:40;;;;;;;18.63;12.68;;;22.80;73.20;;;;;;4991637;28;20111;-77
2021/06/15 03:32:15;;;;;;;17.73;12.18;;;22.80;73.30;;;;;;4991994;28;20099;-77
2021/06/15 03:34:47;;;;;;;17.15;12.18;;;22.80;73.20;;;;;;4991064;28;20511;-78
2021/06/15 03:37:20;;;;;;;15.57;12.27;;;22.80;73.20;;;;;;4991648;28;20058;-76
2021/06/15 03:39:49;;;;;;;16.90;13.35;;;22.80;73.20;;;;;;4991497;28;20402;-78
2021/06/15 03:42:21;;;;;;;19.98;13.57;;;22.80;73.20;;;;;;4991728;28;20053;-78
2021/06/15 03:45:17;;;;;;;16.42;12.07;;;22.80;73.40;;;;;;4991654;28;20034;-77
2021/06/15 03:47:48;;;;;;;17.50;12.23;;;22.70;74.10;;;;;;4983180;28;20041;-77
2021/06/15 03:50:16;;;;;;;17.05;13.05;;;22.70;73.40;;;;;;5006575;28;20417;-76
2021/06/15 03:52:42;;;;;;;20.15;14.30;;;22.70;73.40;;;;;;4991651;28;20386;-76
2021/06/15 03:55:12;;;;;;;21.15;15.27;;;22.70;73.40;;;;;;4991649;28;20046;-76
2021/06/15 03:57:41;;;;;;;22.08;15.02;;;22.70;73.40;;;;;;4990123;28;20019;-76
2021/06/15 04:00:11;;;;;;;20.10;13.45;;;22.70;73.40;;;;;;4991660;28;20085;-77
2021/06/15 04:02:40;;;;;;;15.63;12.32;;;22.70;73.30;;;;;;4991425;28;20053;-81
2021/06/15 04:05:07;;;;;;;18.52;13.40;;;22.70;73.40;;;;;;4991476;28;20037;-77
2021/06/15 04:07:34;;;;;;;21.92;16.27;;;22.70;73.40;;;;;;4991200;28;20049;-78
2021/06/15 04:10:02;;;;;;;19.05;14.00;;;22.70;73.40;;;;;;4991611;28;20046;-77
2021/06/15 04:12:28;;;;;;;19.60;14.82;;;22.70;73.30;;;;;;4991867;28;20054;-77
2021/06/15 04:14:57;;;;;;;16.33;12.43;;;22.70;73.40;;;;;;4991217;28;20465;-77
2021/06/15 04:17:27;;;;;;;20.92;15.60;;;22.70;73.50;;;;;;4991472;28;20458;-82
2021/06/15 04:19:55;;;;;;;25.60;15.90;;;22.70;73.40;;;;;;4994065;28;20030;-79
2021/06/15 04:22:26;;;;;;;20.98;14.65;;;22.70;73.40;;;;;;4995331;28;20037;-80
2021/06/15 04:24:53;;;;;;;20.02;16.05;;;22.70;73.40;;;;;;4995082;28;20376;-79
2021/06/15 04:27:21;;;;;;;19.27;14.18;;;22.70;73.40;;;;;;4995356;28;20026;-81
2021/06/15 04:29:54;;;;;;;17.40;14.15;;;22.70;73.40;;;;;;4994908;28;20041;-77
2021/06/15 04:32:20;;;;;;;24.13;17.63;;;22.70;73.50;;;;;;4995074;28;20037;-79
2021/06/15 04:34:53;;;;;;;18.15;13.77;;;22.70;73.60;;;;;;4992989;28;20402;-81
2021/06/15 04:37:20;;;;;;;23.90;15.43;;;22.70;73.60;;;;;;5010136;28;20037;-80
2021/06/15 04:39:53;;;;;;;21.92;15.55;;;22.70;73.60;;;;;;4994728;28;20084;-82
2021/06/15 04:42:43;;;;;;;21.42;16.00;;;22.70;73.60;;;;;;5009967;28;20500;-80
2021/06/15 04:45:09;;;;;;;24.67;16.60;;;22.70;73.60;;;;;;4995037;28;20033;-80
2021/06/15 04:47:41;;;;;;;21.10;15.93;;;22.70;73.70;;;;;;4994569;28;20434;-80
2021/06/15 04:50:27;;;;;;;21.23;17.08;;;22.70;73.70;;;;;;4994845;28;20030;-81
2021/06/15 04:52:53;;;;;;;;;;;22.70;73.80;;;;;;5008469;28;20386;-81
2021/06/15 04:55:21;;;;;;;;;;;22.70;73.90;;;;;;4994941;28;19921;-81
2021/06/15 04:57:47;;;;;;;24.90;19.08;;;22.60;73.80;;;;;;4994600;28;19906;-81
2021/06/15 05:00:14;;;;;;;25.10;19.73;;;22.70;73.90;;;;;;4993895;28;20109;-81
2021/06/15 05:02:40;;;;;;;25.13;18.75;;;22.60;74.00;;;;;;4993981;28;20034;-81
2021/06/15 05:05:09;;;;;;;26.05;19.27;;;22.60;74.10;;;;;;4994082;28;20053;-77
2021/06/15 05:07:35;;;;;;;25.73;19.10;;;22.60;74.10;;;;;;4993976;28;20018;-78
2021/06/15 05:10:03;;;;;;;27.17;19.00;;;22.60;74.20;;;;;;4994615;28;20393;-76
2021/06/15 05:12:42;;;;;;;28.10;20.73;;;22.60;74.30;;;;;;4994391;28;20026;-77
2021/06/15 05:15:11;;;;;;;26.15;19.17;;;22.60;74.40;;;;;;4992998;28;20070;-76
2021/06/15 05:17:38;;;;;;;29.77;21.02;;;22.60;74.40;;;;;;4993950;28;20051;-75
2021/06/15 05:20:07;;;;;;;29.15;21.67;;;22.60;74.60;;;;;;4994131;28;20080;-77
2021/06/15 05:22:46;;;;;;;30.92;21.20;;;22.60;74.70;;;;;;4993965;28;20389;-80
2021/06/15 05:25:14;;;;;;;25.95;20.13;;;22.60;74.80;;;;;;4993782;28;20140;-76
2021/06/15 05:27:40;;;;;;;25.30;19.40;;;22.60;74.80;;;;;;4994039;28;20023;-80
2021/06/15 05:30:07;;;;;;;29.70;19.88;;;22.60;74.90;;;;;;4992640;28;20614;-76
2021/06/15 05:32:32;;;;;;;29.55;20.42;;;22.60;74.80;;;;;;4993784;28;20022;-77
2021/06/15 05:34:59;;;;;;;28.85;21.63;;;22.60;74.90;;;;;;4994004;28;20093;-79
2021/06/15 05:37:25;;;;;;;26.63;19.25;;;22.60;74.90;;;;;;4993965;28;20018;-78
2021/06/15 05:39:51;;;;;;;29.67;21.67;;;22.60;75.10;;;;;;4993593;28;20030;-77
2021/06/15 05:42:17;;;;;;;25.75;22.42;;;22.60;75.20;;;;;;4994029;28;20030;-78
2021/06/15 05:44:43;;;;;;;30.75;22.05;;;22.60;75.40;;;;;;4993459;28;20497;-77
2021/06/15 05:47:10;;;;;;;27.75;21.55;;;22.60;75.50;;;;;;4992735;28;20154;-78
2021/06/15 05:49:36;;;;;;;31.95;23.42;;;22.60;75.70;;;;;;4993113;28;20117;-78
2021/06/15 05:52:07;;;;;;;29.15;23.42;;;22.60;75.70;;;;;;4991885;28;20018;-76
2021/06/15 05:54:33;;;;;;;37.08;26.92;;;22.60;75.80;;;;;;4993037;28;20046;-78
2021/06/15 05:56:59;;;;;;;48.22;35.40;;;22.60;76.60;;;;;;4992750;28;20023;-74
2021/06/15 05:59:25;;;;;;;53.67;39.30;;;22.50;79.10;;;;;;4992925;28;20026;-76
2021/06/15 06:01:51;;;;;;;62.15;42.47;;;22.30;81.70;;;;;;4993066;28;20019;-74
2021/06/15 06:04:21;;;;;;;55.38;43.63;;;22.20;83.30;;;;;;5008203;28;20084;-75
2021/06/15 06:09:33;;;;;;;52.65;40.58;;;22.10;84.80;;;;;;4992833;28;20109;-81
2021/06/15 06:11:59;;;;;;;51.22;39.67;;;22.00;85.50;;;;;;4993672;28;20026;-74
2021/06/15 06:14:24;;;;;;;58.75;43.50;;;22.00;86.30;;;;;;4993177;28;20450;-78
2021/06/15 06:16:50;;;;;;;51.22;39.60;;;22.00;87.10;;;;;;4992198;28;20081;-74
2021/06/15 06:19:16;;;;;;;55.78;41.88;;;22.00;87.50;;;;;;4992644;28;20073;-76
2021/06/15 06:21:43;;;;;;;51.80;39.30;;;22.00;87.60;;;;;;4991889;28;20018;-74
2021/06/15 06:24:11;;;;;;;47.13;38.22;;;22.10;87.90;;;;;;4992978;28;20030;-74
2021/06/15 06:26:37;;;;;;;50.65;38.75;;;22.00;88.30;;;;;;4992943;28;20027;-74
2021/06/15 06:29:03;;;;;;;51.40;36.20;;;22.00;88.60;;;;;;4992784;28;20019;-73
2021/06/15 06:31:29;;;;;;;53.00;38.47;;;22.10;88.60;;;;;;4991893;28;20031;-75
2021/06/15 06:33:55;;;;;;;52.15;39.63;;;22.00;89.10;;;;;;4992473;28;20023;-73
2021/06/15 06:36:21;;;;;;;52.20;37.95;;;22.00;89.50;;;;;;4992842;28;20041;-73
2021/06/15 06:38:51;;;;;;;54.75;38.33;;;22.10;89.60;;;;;;4991242;28;20042;-74
2021/06/15 06:41:19;;;;;;;53.95;36.85;;;22.10;89.90;;;;;;4990985;28;20125;-73
2021/06/15 06:43:45;;;;;;;49.83;34.95;;;22.00;90.30;;;;;;4992380;28;20023;-74
2021/06/15 06:46:10;;;;;;;46.50;34.85;;;22.00;90.40;;;;;;4991552;28;20138;-73
2021/06/15 06:48:37;;;;;;;51.55;37.03;;;22.00;90.50;;;;;;4991680;28;20117;-74
2021/06/15 06:51:03;;;;;;;48.03;35.67;;;22.00;90.70;;;;;;4992406;28;20089;-76
2021/06/15 06:53:28;;;;;;;44.42;33.42;;;22.00;91.00;;;;;;4991927;28;20026;-74
2021/06/15 06:55:55;;;;;;;43.63;32.05;;;22.00;91.20;;;;;;4991969;28;20038;-77
2021/06/15 06:58:21;;;;;;;44.17;32.50;;;21.90;91.30;;;;;;4992182;28;20546;-80
2021/06/15 07:00:47;;;;;;;38.42;28.13;;;22.00;91.20;;;;;;4990918;28;20121;-79
2021/06/15 07:03:12;;;;;;;40.53;28.00;;;22.00;91.00;;;;;;4991971;28;20429;-79
2021/06/15 07:05:38;;;;;;;36.15;26.77;;;22.10;90.70;;;;;;4990307;28;20036;-80
2021/06/15 07:08:04;;;;;;;38.10;26.38;;;22.10;90.70;;;;;;4991424;28;20654;-78
2021/06/15 07:10:30;;;;;;;39.00;25.38;;;22.10;90.40;;;;;;4992279;28;20089;-80
2021/06/15 07:12:56;;;;;;;35.35;25.25;;;22.10;90.30;;;;;;4991895;28;20098;-80
2021/06/15 07:15:21;;;;;;;32.67;24.08;;;22.20;90.10;;;;;;4991272;28;20372;-81
2021/06/15 07:17:47;;;;;;;40.10;27.08;;;22.20;90.00;;;;;;4990988;28;20541;-81
2021/06/15 07:20:13;;;;;;;31.77;21.60;;;22.20;89.40;;;;;;4991133;28;20496;-81
2021/06/15 07:22:39;;;;;;;32.60;23.45;;;22.30;89.20;;;;;;4991778;28;20117;-80
2021/06/15 07:25:08;;;;;;;29.55;22.40;;;22.30;88.60;;;;;;4991555;28;20038;-80
2021/06/15 07:27:34;;;;;;;28.98;21.15;;;22.30;88.50;;;;;;4991842;28;20106;-80
2021/06/15 07:30:00;;;;;;;28.40;20.92;;;22.30;88.80;;;;;;4993526;28;20065;-78
2021/06/15 07:32:26;;;;;;;28.95;19.17;;;22.30;88.50;;;;;;4991260;28;20054;-77
2021/06/15 07:34:51;;;;;;;27.98;17.23;;;22.30;89.00;;;;;;4991532;28;20536;-76
2021/06/15 07:37:17;;;;;;;26.60;19.10;;;22.30;88.20;;;;;;4991716;28;20033;-75
2021/06/15 07:39:43;;;;;;;24.85;17.10;;;22.30;88.30;;;;;;4990638;28;20101;-77
2021/06/15 07:42:09;;;;;;;20.85;14.90;;;22.40;88.10;;;;;;4991597;28;20145;-76
2021/06/15 07:44:35;;;;;;;24.52;15.93;;;22.40;87.90;;;;;;4991159;28;20029;-78
2021/06/15 07:47:00;;;;;;;23.73;15.57;;;22.40;87.90;;;;;;4991041;28;20030;-77
2021/06/15 07:49:26;;;;;;;22.27;17.27;;;22.40;87.70;;;;;;4987055;28;20121;-77
2021/06/15 07:51:52;;;;;;;18.25;14.05;;;22.40;87.70;;;;;;4987864;28;20034;-77
2021/06/15 07:54:18;;;;;;;19.95;13.73;;;22.40;87.60;;;;;;4992872;28;20037;-76
2021/06/15 07:56:43;;;;;;;16.30;11.68;;;22.40;87.40;;;;;;4995266;28;20038;-77
2021/06/15 07:59:09;;;;;;;17.45;12.10;;;22.40;87.20;;;;;;4995068;28;20030;-76
2021/06/15 08:01:34;;;;;;;18.15;11.52;;;22.40;87.30;;;;;;4993770;28;20030;-76
2021/06/15 08:04:00;;;;;;;15.20;10.82;;;22.40;87.00;;;;;;4995813;28;20050;-77
2021/06/15 08:06:26;;;;;;;15.93;11.38;;;22.50;86.90;;;;;;4995511;28;20038;-79
2021/06/15 08:08:51;;;;;;;16.05;10.40;;;22.50;86.90;;;;;;4994715;28;20026;-77
2021/06/15 08:11:18;;;;;;;15.27;10.35;;;22.50;86.80;;;;;;4995208;28;20022;-78
2021/06/15 08:13:43;;;;;;;14.07;9.05;;;22.50;86.80;;;;;;4994949;28;20053;-80
2021/06/15 08:16:10;;;;;;;13.27;9.73;;;22.50;86.70;;;;;;4994824;28;20510;-80
2021/06/15 08:18:36;;;;;;;16.02;9.52;;;22.50;86.70;;;;;;5010154;28;20027;-82
2021/06/15 08:21:02;;;;;;;12.88;8.90;;;22.50;86.60;;;;;;4995061;28;20034;-79
2021/06/15 08:23:29;;;;;;;16.10;8.77;;;22.50;86.40;;;;;;4995383;28;20026;-77
2021/06/15 08:25:56;;;;;;;10.98;7.68;;;22.60;86.30;;;;;;4994349;28;20078;-81
2021/06/15 08:28:22;;;;;;;9.95;7.47;;;22.60;86.50;;;;;;4994764;28;20080;-81
2021/06/15 08:30:49;;;;;;;12.70;8.20;;;22.60;86.20;;;;;;4994615;28;20109;-82
2021/06/15 08:33:16;;;;;;;10.15;7.10;;;22.60;86.20;;;;;;4995218;28;20023;-76
2021/06/15 08:35:42;;;;;;;9.57;6.40;;;22.60;86.00;;;;;;4994352;28;20498;-81
2021/06/15 08:38:07;;;;;;;11.07;7.40;;;22.50;85.90;;;;;;4994835;28;20058;-79
2021/06/15 08:40:33;;;;;;;9.43;7.72;;;22.60;86.00;;;;;;4993248;28;20128;-80
2021/06/15 08:42:59;;;;;;;9.27;6.43;;;22.60;86.10;;;;;;4994543;28;20044;-81
2021/06/15 08:45:25;;;;;;;9.32;7.07;;;22.60;86.00;;;;;;4994645;28;20478;-81
2021/06/15 08:47:53;;;;;;;9.40;6.35;;;22.60;85.90;;;;;;4994747;28;20030;-78
2021/06/15 08:50:22;;;;;;;9.93;5.75;;;22.60;85.80;;;;;;4994185;28;20082;-80
2021/06/15 08:52:49;;;;;;;8.95;6.00;;;22.60;85.60;;;;;;4994091;28;20041;-80
2021/06/15 08:55:15;;;;;;;9.20;6.38;;;22.60;85.80;;;;;;4993859;28;20070;-80
2021/06/15 08:57:44;;;;;;;10.32;6.20;;;22.60;85.60;;;;;;4994195;28;20470;-77
2021/06/15 09:00:12;;;;;;;7.55;5.22;;;22.60;85.60;;;;;;4994132;28;20026;-80
2021/06/15 09:02:43;;;;;;;7.45;5.57;;;22.60;85.70;;;;;;4994472;28;20026;-77
2021/06/15 09:05:10;;;;;;;7.50;5.22;;;22.60;85.70;;;;;;4992956;28;20042;-81
2021/06/15 09:07:58;;;;;;;6.38;5.32;;;22.60;85.60;;;;;;4994219;28;20072;-78
2021/06/15 09:10:39;;;;;;;6.72;5.32;;;22.70;85.60;;;;;;5009768;28;20030;-80
2021/06/15 09:13:07;;;;;;;7.90;5.45;;;22.70;85.60;;;;;;5014203;28;20026;-78
2021/06/15 09:15:33;;;;;;;8.43;5.70;;;22.70;85.60;;;;;;5013840;28;20548;-82
2021/06/15 09:18:00;;;;;;;7.32;5.40;;;22.70;85.60;;;;;;5010917;28;20038;-81
2021/06/15 09:20:28;;;;;;;6.68;4.95;;;22.70;85.50;;;;;;4994008;28;20429;-82
2021/06/15 09:23:05;;;;;;;5.97;4.60;;;22.70;85.50;;;;;;4993883;28;20022;-82
2021/06/15 09:25:32;;;;;;;7.57;4.68;;;22.70;85.50;;;;;;4993675;28;20034;-82
2021/06/15 09:27:59;;;;;;;5.57;4.78;;;22.70;85.40;;;;;;4994516;28;20421;-76
2021/06/15 09:30:29;;;;;;;8.50;5.45;;;22.70;85.30;;;;;;4993712;28;20041;-79
2021/06/15 09:33:09;;;;;;;6.82;5.35;;;22.70;85.40;;;;;;4993636;28;20026;-81
2021/06/15 09:35:35;;;;;;;7.10;4.55;;;22.70;85.30;;;;;;4993330;28;20126;-79
2021/06/15 09:38:01;;;;;;;6.60;4.72;;;22.70;85.30;;;;;;4993803;28;20102;-79
2021/06/15 09:40:35;;;;;;;5.57;4.70;;;22.70;85.00;;;;;;4994686;28;20018;-82
2021/06/15 09:43:09;;;;;;;9.30;5.55;;;22.70;85.00;;;;;;4995669;28;20077;-80
2021/06/15 09:45:36;;;;;;;5.88;4.75;;;22.70;85.00;;;;;;4993673;28;20030;-82
2021/06/15 09:48:24;;;;;;;7.07;4.63;;;22.70;85.00;;;;;;4993994;28;20486;-83
2021/06/15 09:50:55;;;;;;;5.72;4.65;;;22.70;85.00;;;;;;4993094;28;20541;-76
2021/06/15 09:53:29;;;;;;;5.35;4.70;;;22.70;85.00;;;;;;4993013;28;20026;-75
2021/06/15 09:55:57;;;;;;;6.78;4.70;;;22.70;85.00;;;;;;4992750;28;20117;-77
2021/06/15 09:58:59;;;;;;;5.72;4.45;;;22.70;84.90;;;;;;4993588;28;20037;-76
2021/06/15 10:01:34;;;;;;;6.10;4.50;;;22.70;84.90;;;;;;4992788;28;20038;-75
2021/06/15 10:04:15;;;;;;;;;;;22.80;85.00;;;;;;4993585;28;20023;-77
2021/06/15 10:06:52;;;;;;;5.38;4.75;;;22.80;85.10;;;;;;4993263;28;19912;-75
2021/06/15 10:09:35;;;;;;;4.95;3.78;;;22.80;85.10;;;;;;4992741;28;20027;-76
2021/06/15 10:12:06;;;;;;;5.40;4.13;;;22.80;85.00;;;;;;5007135;28;20036;-76
2021/06/15 10:14:34;;;;;;;5.20;3.97;;;22.80;85.10;;;;;;5012720;28;20057;-77
2021/06/15 10:17:00;;;;;;;7.28;4.43;;;22.80;85.80;;;;;;5012651;28;20030;-77
2021/06/15 10:19:26;;;;;;;6.38;4.20;;;22.80;85.00;;;;;;4997821;28;20076;-77
2021/06/15 10:21:53;;;;;;;5.25;4.07;;;22.80;85.00;;;;;;4992393;28;20037;-73
2021/06/15 10:24:23;;;;;;;4.25;3.78;;;22.80;85.10;;;;;;4993104;28;20034;-75
2021/06/15 10:26:49;;;;;;;5.53;4.47;;;22.80;85.30;;;;;;4995042;28;20065;-75
2021/06/15 10:29:16;;;;;;;6.15;3.75;;;22.80;85.20;;;;;;4991535;28;20035;-76
2021/06/15 10:31:44;;;;;;;5.65;4.13;;;22.80;85.50;;;;;;4990654;28;20018;-76
2021/06/15 10:34:09;;;;;;;5.30;3.90;;;22.80;85.50;;;;;;4991135;28;20228;-77
2021/06/15 10:36:46;;;;;;;4.82;4.28;;;22.80;85.40;;;;;;4992067;28;20410;-76
2021/06/15 10:39:36;;;;;;;7.45;3.70;;;22.80;85.40;;;;;;4991717;28;20462;-77
2021/06/15 10:42:11;;;;;;;5.65;3.95;;;22.90;85.40;;;;;;4993013;28;20034;-80
2021/06/15 10:44:37;;;;;;;5.00;3.60;;;22.90;85.50;;;;;;4992374;28;20030;-81
2021/06/15 10:47:11;;;;;;;5.40;3.53;;;22.90;85.50;;;;;;5007465;28;20033;-81
2021/06/15 10:49:59;;;;;;;4.78;3.58;;;22.90;85.40;;;;;;4991013;28;20030;-80
2021/06/15 10:52:26;;;;;;;6.25;4.10;;;22.90;85.10;;;;;;4992512;28;20030;-81
2021/06/15 10:54:51;;;;;;;4.32;3.58;;;22.90;85.10;;;;;;4992105;28;20660;-81
2021/06/15 10:57:31;;;;;;;5.00;4.00;;;22.90;85.20;;;;;;4992395;28;20101;-80
2021/06/15 11:00:09;;;;;;;5.00;3.35;;;22.80;85.00;;;;;;4991106;28;20430;-82
2021/06/15 11:02:36;;;;;;;4.93;3.60;;;22.90;85.10;;;;;;5007233;28;20058;-80
2021/06/15 11:05:39;;;;;;;4.95;3.70;;;22.90;85.10;;;;;;4992624;28;20490;-81
2021/06/15 11:08:24;;;;;;;3.55;3.20;;;22.90;85.10;;;;;;4991815;28;20023;-81
2021/06/15 11:10:51;;;;;;;3.85;3.38;;;22.90;85.10;;;;;;4991396;28;20030;-80
2021/06/15 11:13:17;;;;;;;5.00;3.83;;;22.90;85.40;;;;;;4990988;28;20084;-77
2021/06/15 11:16:00;;;;;;;5.38;3.90;;;22.90;85.50;;;;;;4991893;28;20444;-80
2021/06/15 11:18:26;;;;;;;7.45;3.90;;;22.90;85.30;;;;;;4992208;28;20054;-79
2021/06/15 11:20:52;;;;;;;4.65;3.65;;;22.90;85.40;;;;;;4991802;28;20553;-78
2021/06/15 11:23:25;;;;;;;3.63;3.05;;;22.90;85.60;;;;;;4992109;28;20097;-80
2021/06/15 11:26:11;;;;;;;5.68;3.85;;;22.90;85.50;;;;;;4991938;28;20021;-80
2021/06/15 11:28:56;;;;;;;4.15;3.20;;;22.90;85.50;;;;;;5005637;28;20038;-80
2021/06/15 11:31:22;;;;;;;5.50;3.47;;;22.90;85.30;;;;;;4992143;28;20449;-79
2021/06/15 11:34:16;;;;;;;5.43;3.70;;;22.90;85.50;;;;;;4991306;28;20034;-80
2021/06/15 11:36:53;;;;;;;5.15;3.70;;;22.90;85.50;;;;;;4974545;28;20062;-77
2021/06/15 11:39:22;;;;;;;6.57;3.25;;;22.90;85.50;;;;;;4972532;28;20082;-79
2021/06/15 11:42:06;;;;;;;5.70;3.53;;;23.00;85.80;;;;;;4972818;28;20027;-82
2021/06/15 11:45:04;;;;;;;5.22;3.90;;;23.00;85.70;;;;;;4986273;28;20030;-83
2021/06/15 11:47:30;;;;;;;8.07;3.72;;;23.00;86.30;;;;;;4971623;28;20054;-81
2021/06/15 11:50:05;;;;;;;5.95;3.40;;;23.00;87.10;;;;;;4986993;28;20027;-80
2021/06/15 11:52:31;;;;;;;6.53;3.60;;;23.10;87.50;;;;;;4991648;28;20069;-78
2021/06/15 11:54:58;;;;;;;4.82;3.72;;;23.00;87.40;;;;;;4991903;28;20101;-80
2021/06/15 11:57:24;;;;;;;6.35;3.53;;;23.10;87.70;;;;;;4991301;28;20026;-80
2021/06/15 11:59:50;;;;;;;3.97;3.45;;;23.10;87.80;;;;;;4990909;28;20026;-75
2021/06/15 12:02:22;;;;;;;5.07;3.22;;;23.10;87.50;;;;;;4991074;28;20526;-78
2021/06/15 12:05:08;;;;;;;4.45;3.22;;;23.10;87.50;;;;;;4991631;28;20022;-78
2021/06/15 12:07:35;;;;;;;5.65;2.95;;;23.10;87.90;;;;;;4994511;28;20025;-81
2021/06/15 12:10:13;;;;;;;4.00;3.25;;;23.10;87.80;;;;;;4995677;28;20453;-79
2021/06/15 12:12:59;;;;;;;4.72;3.13;;;23.10;87.40;;;;;;4999443;28;20080;-78
2021/06/15 12:15:26;;;;;;;4.68;3.08;;;23.10;87.80;;;;;;5006401;28;20042;-79
2021/06/15 12:17:52;;;;;;;5.88;3.22;;;23.20;88.10;;;;;;4992169;28;20038;-77
2021/06/15 12:20:23;;;;;;;5.38;3.28;;;23.10;87.90;;;;;;4992596;28;20029;-78
2021/06/15 12:22:49;;;;;;;5.38;3.33;;;23.10;87.60;;;;;;4991872;28;20390;-79
2021/06/15 12:25:16;;;;;;;4.15;3.20;;;23.10;87.70;;;;;;4990472;28;20066;-79
2021/06/15 12:27:41;;;;;;;5.13;3.00;;;23.10;87.20;;;;;;4993012;28;20037;-79
2021/06/15 12:30:08;;;;;;;4.53;3.17;;;23.10;87.10;;;;;;4993497;28;20026;-77
2021/06/15 12:32:46;;;;;;;4.28;3.15;;;23.10;87.00;;;;;;4992233;28;20019;-79
2021/06/15 12:35:18;;;;;;;3.42;2.60;;;23.20;87.20;;;;;;4992378;28;20034;-79
2021/06/15 12:37:43;;;;;;;4.10;2.90;;;23.10;87.80;;;;;;4992275;28;20033;-78
2021/06/15 12:40:10;;;;;;;4.53;3.25;;;23.10;87.10;;;;;;4993496;28;20413;-79
2021/06/15 12:42:35;;;;;;;4.32;3.35;;;23.20;87.20;;;;;;4993878;28;20026;-80
2021/06/15 12:45:01;;;;;;;4.25;3.40;;;23.20;87.10;;;;;;4995747;28;20092;-78
2021/06/15 12:47:28;;;;;;;5.68;3.50;;;23.20;87.10;;;;;;4996059;28;20445;-79
2021/06/15 12:49:56;;;;;;;3.70;2.85;;;23.20;87.40;;;;;;4994039;28;20026;-80
2021/06/15 12:52:34;;;;;;;3.50;3.20;;;23.20;87.50;;;;;;4994787;28;20939;-80
2021/06/15 12:55:18;;;;;;;4.30;3.13;;;23.20;87.30;;;;;;4995306;28;20034;-78